createdAt,value
2018-06-28T00:00:08.146Z,31.83
2018-06-28T00:02:56.634Z,30.80
2018-06-28T00:08:35.995Z,34.23
2018-06-28T00:11:29.172Z,25.57
2018-06-28T00:14:19.458Z,24.73
2018-06-28T00:17:03.108Z,33.33
2018-06-28T00:19:58.837Z,28.73
2018-06-28T00:22:48.776Z,24.73
2018-06-28T00:25:44.767Z,29.43
2018-06-28T00:28:39.207Z,27.47
2018-06-28T00:31:29.538Z,26.67
2018-06-28T00:34:17.222Z,25.87
2018-06-28T00:37:11.124Z,24.83
2018-06-28T00:40:07.873Z,25.43
2018-06-28T00:42:51.256Z,31.20
2018-06-28T00:45:41.129Z,24.77
2018-06-28T00:48:31.757Z,25.73
2018-06-28T00:51:13.451Z,24.53
2018-06-28T00:54:03.258Z,24.37
2018-06-28T00:56:47.053Z,28.33
2018-06-28T00:59:31.237Z,23.63
2018-06-28T01:02:22.049Z,26.57
2018-06-28T01:05:12.393Z,24.07
2018-06-28T01:08:01.194Z,24.90
2018-06-28T01:10:52.329Z,27.33
2018-06-28T01:13:41.110Z,24.63
2018-06-28T01:16:30.619Z,27.13
2018-06-28T01:19:20.095Z,29.17
2018-06-28T01:22:21.128Z,35.47
2018-06-28T01:25:11.224Z,29.73
2018-06-28T01:27:58.132Z,28.90
2018-06-28T01:33:34.862Z,29.93
2018-06-28T01:36:04.846Z,29.63
2018-06-28T01:38:47.176Z,27.10
2018-06-28T01:41:38.530Z,29.03
2018-06-28T01:44:27.964Z,29.83
2018-06-28T01:47:18.528Z,26.93
2018-06-28T01:55:51.587Z,24.17
2018-06-28T01:58:40.133Z,25.90
2018-06-28T02:04:21.847Z,28.00
2018-06-28T02:07:15.655Z,25.73
2018-06-28T02:09:59.683Z,28.13
2018-06-28T02:12:50.346Z,26.27
2018-06-28T02:18:27.065Z,26.03
2018-06-28T02:21:19.707Z,30.17
2018-06-28T02:24:11.106Z,30.03
2018-06-28T02:27:04.617Z,30.13
2018-06-28T02:29:53.961Z,28.60
2018-06-28T02:35:33.813Z,25.80
2018-06-28T02:38:24.370Z,26.07
2018-06-28T02:41:13.264Z,26.50
2018-06-28T02:46:59.120Z,28.17
2018-06-28T02:49:55.627Z,28.00
2018-06-28T02:58:33.203Z,30.47
2018-06-28T03:01:24.375Z,29.47
2018-06-28T03:04:14.408Z,28.63
2018-06-28T03:07:04.854Z,27.33
2018-06-28T03:09:53.273Z,31.13
2018-06-28T03:12:38.083Z,32.37
2018-06-28T03:15:23.236Z,28.10
2018-06-28T03:18:09.450Z,31.80
2018-06-28T03:20:56.347Z,27.83
2018-06-28T03:23:48.271Z,37.77
2018-06-28T03:26:36.667Z,31.67
2018-06-28T03:32:14.172Z,32.17
2018-06-28T03:35:01.558Z,32.20
2018-06-28T03:37:43.086Z,29.70
2018-06-28T03:40:36.104Z,28.30
2018-06-28T03:43:27.287Z,31.97
2018-06-28T03:46:11.170Z,27.43
2018-06-28T03:49:00.764Z,29.83
2018-06-28T03:51:50.260Z,32.83
2018-06-28T03:54:42.684Z,27.50
2018-06-28T03:57:28.276Z,38.67
2018-06-28T04:00:16.174Z,35.30
2018-06-28T04:03:09.315Z,33.63
2018-06-28T04:06:03.109Z,35.23
2018-06-28T04:08:56.935Z,31.13
2018-06-28T04:11:49.623Z,30.90
2018-06-28T04:20:28.765Z,31.73
2018-06-28T04:23:15.998Z,28.27
2018-06-28T04:31:51.416Z,32.13
2018-06-28T04:34:41.083Z,40.33
2018-06-28T04:37:31.301Z,35.60
2018-06-28T04:40:19.845Z,31.13
2018-06-28T04:43:09.649Z,31.10
2018-06-28T04:46:00.810Z,30.27
2018-06-28T04:48:49.234Z,26.97
2018-06-28T04:51:41.627Z,34.50
2018-06-28T04:54:38.306Z,28.57
2018-06-28T04:57:31.555Z,32.10
2018-06-28T05:00:24.598Z,35.77
2018-06-28T05:03:19.193Z,29.20
2018-06-28T05:09:04.550Z,27.23
2018-06-28T05:11:55.735Z,30.80
2018-06-28T05:14:46.985Z,33.73
2018-06-28T05:17:30.491Z,30.77
2018-06-28T05:20:10.143Z,32.73
2018-06-28T05:25:51.093Z,28.83
2018-06-28T05:28:43.304Z,31.17
2018-06-28T05:31:32.164Z,31.67
2018-06-28T05:42:48.208Z,28.13
2018-06-28T05:45:25.721Z,29.40
2018-06-28T05:48:09.440Z,32.87
2018-06-28T05:50:55.782Z,27.47
2018-06-28T05:53:35.570Z,28.33
2018-06-28T05:56:13.587Z,28.20
2018-06-28T05:58:59.580Z,25.03
2018-06-28T06:01:40.397Z,28.30
2018-06-28T06:04:30.287Z,29.13
2018-06-28T06:07:16.734Z,22.90
2018-06-28T06:09:53.481Z,25.43
2018-06-28T06:12:33.703Z,25.23
2018-06-28T06:15:17.320Z,25.43
2018-06-28T06:18:05.717Z,23.83
2018-06-28T06:20:48.962Z,27.10
2018-06-28T06:23:40.124Z,22.83
2018-06-28T06:26:27.131Z,21.80
2018-06-28T06:29:21.377Z,23.23
2018-06-28T06:32:13.779Z,24.27
2018-06-28T06:34:50.265Z,24.77
2018-06-28T06:37:23.595Z,26.37
2018-06-28T06:40:01.285Z,19.17
2018-06-28T06:42:36.703Z,21.90
2018-06-28T06:45:13.885Z,20.50
2018-06-28T06:47:57.797Z,21.50
2018-06-28T06:50:39.120Z,17.13
2018-06-28T06:53:26.587Z,20.27
2018-06-28T06:56:07.741Z,15.43
2018-06-28T06:58:47.048Z,15.43
2018-06-28T07:01:32.760Z,13.37
2018-06-28T07:04:11.484Z,14.47
2018-06-28T07:06:49.835Z,15.77
2018-06-28T07:09:36.413Z,15.97
2018-06-28T07:12:18.109Z,17.00
2018-06-28T07:14:56.515Z,16.27
2018-06-28T07:17:40.820Z,14.70
2018-06-28T07:20:29.320Z,18.90
2018-06-28T07:23:11.115Z,13.03
2018-06-28T07:25:52.283Z,15.47
2018-06-28T07:28:40.763Z,15.83
2018-06-28T07:31:28.194Z,13.70
2018-06-28T07:34:09.035Z,18.73
2018-06-28T07:36:48.580Z,14.77
2018-06-28T07:39:32.304Z,15.50
2018-06-28T07:42:12.938Z,13.57
2018-06-28T07:44:53.180Z,14.73
2018-06-28T07:47:39.264Z,12.53
2018-06-28T07:50:21.094Z,13.60
2018-06-28T07:53:02.891Z,13.03
2018-06-28T07:55:46.133Z,9.57
2018-06-28T07:58:29.737Z,15.80
2018-06-28T08:01:13.757Z,14.17
2018-06-28T08:03:52.155Z,12.83
2018-06-28T08:06:40.977Z,15.93
2018-06-28T08:09:29.614Z,9.70
2018-06-28T08:12:09.206Z,10.30
2018-06-28T08:14:54.316Z,9.43
2018-06-28T08:17:39.210Z,13.30
2018-06-28T08:20:28.630Z,19.30
2018-06-28T08:23:05.620Z,12.80
2018-06-28T08:25:46.658Z,10.00
2018-06-28T08:28:30.961Z,11.27
2018-06-28T08:31:15.112Z,10.57
2018-06-28T08:33:53.922Z,13.20
2018-06-28T08:36:31.727Z,9.77
2018-06-28T08:39:10.954Z,10.23
2018-06-28T08:41:53.195Z,13.10
2018-06-28T08:44:34.573Z,8.90
2018-06-28T08:47:19.383Z,11.27
2018-06-28T08:49:57.650Z,11.60
2018-06-28T08:52:46.602Z,13.87
2018-06-28T08:55:33.898Z,12.80
2018-06-28T08:58:15.271Z,13.97
2018-06-28T09:00:56.362Z,11.70
2018-06-28T09:06:33.347Z,7.53
2018-06-28T09:09:18.959Z,10.17
2018-06-28T09:12:04.593Z,9.53
2018-06-28T09:14:46.616Z,10.07
2018-06-28T09:17:32.854Z,12.63
2018-06-28T09:20:16.493Z,13.37
2018-06-28T09:23:03.603Z,12.20
2018-06-28T09:28:40.268Z,7.40
2018-06-28T09:31:28.310Z,8.43
2018-06-28T09:34:19.472Z,12.13
2018-06-28T09:36:57.491Z,11.00
2018-06-28T09:42:22.944Z,12.83
2018-06-28T09:45:06.829Z,11.87
2018-06-28T09:47:44.353Z,8.00
2018-06-28T09:50:29.869Z,11.93
2018-06-28T09:53:16.750Z,11.37
2018-06-28T09:55:57.404Z,7.73
2018-06-28T09:58:45.476Z,8.63
2018-06-28T10:01:19.081Z,9.57
2018-06-28T10:04:10.627Z,6.17
2018-06-28T10:06:54.697Z,6.87
2018-06-28T10:09:40.737Z,8.07
2018-06-28T10:12:23.925Z,6.87
2018-06-28T10:17:50.773Z,8.80
2018-06-28T10:20:33.584Z,4.13
2018-06-28T10:23:18.575Z,4.63
2018-06-28T10:26:05.108Z,4.10
2018-06-28T10:28:44.202Z,3.70
2018-06-28T10:34:22.826Z,3.87
2018-06-28T10:37:03.424Z,2.67
2018-06-28T10:39:50.140Z,3.20
2018-06-28T10:42:42.092Z,3.20
2018-06-28T10:45:26.210Z,3.30
2018-06-28T10:48:13.485Z,3.73
2018-06-28T10:51:00.854Z,4.57
2018-06-28T10:53:44.442Z,4.70
2018-06-28T10:56:27.384Z,4.13
2018-06-28T11:02:10.236Z,6.70
2018-06-28T11:04:56.279Z,4.30
2018-06-28T11:07:43.255Z,5.23
2018-06-28T11:10:27.201Z,4.60
2018-06-28T11:13:10.322Z,3.47
2018-06-28T11:15:50.991Z,3.67
2018-06-28T11:18:39.108Z,4.93
2018-06-28T11:21:25.548Z,4.37
2018-06-28T11:24:13.031Z,4.33
2018-06-28T11:26:46.051Z,3.97
2018-06-28T11:29:30.870Z,4.40
2018-06-28T11:32:10.634Z,3.97
2018-06-28T11:34:48.901Z,3.03
2018-06-28T11:37:32.702Z,6.10
2018-06-28T11:40:18.171Z,3.70
2018-06-28T11:42:59.599Z,3.87
2018-06-28T11:45:40.896Z,3.23
2018-06-28T11:51:17.035Z,4.27
2018-06-28T11:54:02.116Z,6.90
2018-06-28T11:56:47.109Z,7.53
2018-06-28T11:59:32.483Z,7.33
2018-06-28T12:02:15.092Z,4.53
2018-06-28T12:04:59.480Z,6.07
2018-06-28T12:07:45.734Z,4.50
2018-06-28T12:10:24.671Z,5.00
2018-06-28T12:13:13.442Z,4.60
2018-06-28T12:15:57.305Z,3.73
2018-06-28T12:18:40.051Z,6.73
2018-06-28T12:21:12.193Z,4.07
2018-06-28T12:23:59.177Z,4.70
2018-06-28T12:26:36.322Z,10.73
2018-06-28T12:29:31.119Z,4.13
2018-06-28T12:32:14.927Z,5.10
2018-06-28T12:34:51.628Z,3.77
2018-06-28T12:40:24.623Z,5.90
2018-06-28T12:43:03.273Z,4.70
2018-06-28T12:45:37.346Z,4.20
2018-06-28T12:48:21.110Z,4.07
2018-06-28T12:51:06.477Z,4.23
2018-06-28T12:53:46.993Z,4.33
2018-06-28T12:56:27.430Z,3.30
2018-06-28T12:59:17.276Z,3.50
2018-06-28T13:01:56.674Z,4.17
2018-06-28T13:07:35.110Z,3.57
2018-06-28T13:10:19.537Z,3.87
2018-06-28T13:13:03.831Z,3.27
2018-06-28T13:15:44.320Z,6.20
2018-06-28T13:18:32.730Z,5.37
2018-06-28T13:21:10.650Z,4.10
2018-06-28T13:23:59.439Z,4.17
2018-06-28T13:26:50.131Z,4.07
2018-06-28T13:29:27.447Z,4.10
2018-06-28T13:32:01.663Z,4.40
2018-06-28T13:34:41.495Z,4.70
2018-06-28T13:37:20.890Z,5.00
2018-06-28T13:39:52.149Z,4.00
2018-06-28T13:42:35.924Z,5.07
2018-06-28T13:45:19.901Z,5.10
2018-06-28T13:48:11.097Z,5.10
2018-06-28T13:51:00.099Z,5.10
2018-06-28T13:53:38.464Z,5.57
2018-06-28T13:56:13.567Z,4.87
2018-06-28T13:59:00.278Z,4.30
2018-06-28T14:01:49.908Z,5.10
2018-06-28T14:04:32.896Z,6.17
2018-06-28T14:07:11.747Z,4.53
2018-06-28T14:09:55.811Z,8.43
2018-06-28T14:12:39.980Z,5.07
2018-06-28T14:15:26.100Z,5.33
2018-06-28T14:17:56.044Z,6.07
2018-06-28T14:20:41.714Z,5.17
2018-06-28T14:23:18.788Z,7.80
2018-06-28T14:26:04.428Z,5.13
2018-06-28T14:28:48.685Z,4.77
2018-06-28T14:34:32.638Z,4.87
2018-06-28T14:37:10.931Z,4.70
2018-06-28T14:39:53.589Z,5.10
2018-06-28T14:42:41.097Z,5.63
2018-06-28T14:45:22.890Z,6.63
2018-06-28T14:48:04.317Z,5.60
2018-06-28T14:50:42.354Z,6.10
2018-06-28T14:53:31.841Z,8.47
2018-06-28T14:56:10.734Z,5.33
2018-06-28T14:58:52.918Z,6.10
2018-06-28T15:01:39.640Z,5.73
2018-06-28T15:04:27.743Z,5.60
2018-06-28T15:07:04.510Z,7.87
2018-06-28T15:09:47.707Z,7.37
2018-06-28T15:12:32.393Z,6.13
2018-06-28T15:15:14.792Z,7.40
2018-06-28T15:17:55.309Z,6.03
2018-06-28T15:23:31.117Z,6.20
2018-06-28T15:26:20.124Z,6.17
2018-06-28T15:29:04.030Z,6.40
2018-06-28T15:31:47.115Z,6.20
2018-06-28T15:34:32.769Z,8.13
2018-06-28T15:37:12.173Z,6.20
2018-06-28T15:39:53.638Z,7.00
2018-06-28T15:42:38.048Z,6.77
2018-06-28T15:45:19.599Z,5.40
2018-06-28T15:47:59.579Z,7.70
2018-06-28T15:50:34.518Z,7.83
2018-06-28T15:53:24.176Z,6.90
2018-06-28T15:56:11.784Z,5.93
2018-06-28T15:58:58.286Z,7.10
2018-06-28T16:01:44.090Z,7.17
2018-06-28T16:07:12.337Z,8.70
2018-06-28T16:09:58.607Z,5.73
2018-06-28T16:12:38.051Z,5.77
2018-06-28T16:15:24.763Z,5.53
2018-06-28T16:18:12.920Z,4.73
2018-06-28T16:20:54.827Z,4.97
2018-06-28T16:23:33.293Z,4.77
2018-06-28T16:26:18.103Z,5.13
2018-06-28T16:29:02.793Z,4.67
2018-06-28T16:31:48.879Z,5.73
2018-06-28T16:34:30.847Z,6.43
2018-06-28T16:39:55.457Z,4.70
2018-06-28T16:42:42.072Z,7.00
2018-06-28T16:45:20.672Z,5.13
2018-06-28T16:48:17.686Z,5.10
2018-06-28T16:51:01.131Z,4.13
2018-06-28T16:53:38.409Z,4.50
2018-06-28T16:56:20.250Z,4.10
2018-06-28T16:59:05.144Z,4.27
2018-06-28T17:01:50.168Z,4.77
2018-06-28T17:04:26.591Z,4.93
2018-06-28T17:07:05.324Z,4.67
2018-06-28T17:09:36.885Z,4.57
2018-06-28T17:12:06.649Z,4.30
2018-06-28T17:15:06.081Z,4.07
2018-06-28T17:17:42.152Z,4.33
2018-06-28T17:20:21.692Z,3.83
2018-06-28T17:23:03.106Z,4.00
2018-06-28T17:25:41.292Z,4.23
2018-06-28T17:28:17.748Z,5.17
2018-06-28T17:30:54.142Z,4.80
2018-06-28T17:33:27.924Z,4.10
2018-06-28T17:38:55.918Z,3.60
2018-06-28T17:41:36.776Z,3.67
2018-06-28T17:44:14.653Z,4.80
2018-06-28T17:46:49.390Z,3.17
2018-06-28T17:49:29.362Z,3.40
2018-06-28T17:52:15.403Z,6.60
2018-06-28T17:54:53.445Z,4.10
2018-06-28T17:57:26.852Z,2.97
2018-06-28T18:00:01.873Z,4.33
2018-06-28T18:02:38.766Z,3.37
2018-06-28T18:05:15.448Z,2.93
2018-06-28T18:07:49.930Z,3.07
2018-06-28T18:10:31.878Z,3.20
2018-06-28T18:13:07.042Z,3.07
2018-06-28T18:15:45.264Z,3.30
2018-06-28T18:18:31.366Z,3.87
2018-06-28T18:21:12.662Z,3.30
2018-06-28T18:23:48.039Z,3.97
2018-06-28T18:26:23.191Z,6.77
2018-06-28T18:28:57.766Z,2.80
2018-06-28T18:31:37.870Z,3.33
2018-06-28T18:34:14.228Z,5.90
2018-06-28T18:36:51.981Z,2.70
2018-06-28T18:39:26.214Z,3.47
2018-06-28T18:42:03.601Z,3.70
2018-06-28T18:44:42.294Z,4.27
2018-06-28T18:47:19.448Z,3.93
2018-06-28T18:49:56.164Z,5.87
2018-06-28T18:52:31.600Z,4.20
2018-06-28T18:55:07.689Z,4.67
2018-06-28T18:57:42.402Z,3.40
2018-06-28T19:00:16.449Z,7.27
2018-06-28T19:02:54.813Z,4.77
2018-06-28T19:05:28.643Z,8.17
2018-06-28T19:08:06.321Z,3.43
2018-06-28T19:10:45.180Z,2.83
2018-06-28T19:13:21.236Z,2.87
2018-06-28T19:16:01.465Z,2.60
2018-06-28T19:18:35.295Z,3.23
2018-06-28T19:21:15.665Z,3.50
2018-06-28T19:24:00.550Z,4.97
2018-06-28T19:26:37.326Z,3.90
2018-06-28T19:29:19.175Z,3.30
2018-06-28T19:32:00.359Z,7.70
2018-06-28T19:34:35.529Z,4.13
2018-06-28T19:37:14.065Z,3.60
2018-06-28T19:39:55.660Z,4.53
2018-06-28T19:42:41.705Z,4.80
2018-06-28T19:45:21.103Z,3.93
2018-06-28T19:47:55.269Z,4.63
2018-06-28T19:50:37.054Z,8.30
2018-06-28T19:53:18.409Z,7.17
2018-06-28T19:55:51.790Z,5.87
2018-06-28T19:58:33.195Z,3.97
2018-06-28T20:01:11.939Z,4.43
2018-06-28T20:03:50.400Z,5.27
2018-06-28T20:06:26.752Z,4.80
2018-06-28T20:09:12.395Z,4.47
2018-06-28T20:11:51.987Z,5.83
2018-06-28T20:15:31.153Z,4.50
2018-06-28T20:18:13.123Z,4.40
2018-06-28T20:20:51.676Z,3.57
2018-06-28T20:23:36.017Z,5.87
2018-06-28T20:26:22.491Z,4.40
2018-06-28T20:29:11.123Z,3.37
2018-06-28T20:31:53.476Z,3.70
2018-06-28T20:34:28.571Z,6.43
2018-06-28T20:37:05.511Z,3.77
2018-06-28T20:39:46.413Z,3.67
2018-06-28T20:42:19.843Z,4.50
2018-06-28T20:45:00.812Z,4.67
2018-06-28T20:47:40.095Z,7.43
2018-06-28T20:50:16.997Z,4.37
2018-06-28T20:52:56.545Z,5.17
2018-06-28T21:11:20.008Z,5.00
2018-06-28T21:14:03.306Z,4.77
2018-06-28T21:16:49.023Z,6.23
2018-06-28T21:19:29.288Z,4.27
2018-06-28T21:22:03.260Z,4.40
2018-06-28T21:24:41.695Z,4.67
2018-06-28T21:27:21.831Z,3.70
2018-06-28T21:30:02.666Z,3.67
2018-06-28T21:32:38.911Z,5.67
2018-06-28T21:35:13.869Z,3.60
2018-06-28T21:37:51.419Z,3.60
2018-06-28T21:40:33.722Z,3.40
2018-06-28T21:43:19.876Z,5.13
2018-06-28T21:46:06.683Z,3.80
2018-06-28T21:48:51.931Z,5.23
2018-06-28T21:51:40.706Z,3.53
2018-06-28T21:54:30.787Z,5.00
2018-06-28T21:57:18.731Z,3.10
2018-06-28T22:00:09.269Z,3.30
2018-06-28T22:02:56.402Z,4.37
2018-06-28T22:05:36.990Z,3.40
2018-06-28T22:08:27.618Z,3.90
2018-06-28T22:11:14.160Z,3.40
2018-06-28T22:13:57.446Z,4.17
2018-06-28T22:16:42.190Z,3.40
2018-06-28T22:19:31.406Z,4.60
2018-06-28T22:22:22.072Z,4.80
2018-06-28T22:25:10.702Z,3.63
2018-06-28T22:27:48.499Z,3.10
2018-06-28T22:30:36.553Z,2.80
2018-06-28T22:33:24.905Z,7.23
2018-06-28T22:36:18.430Z,5.50
2018-06-28T22:39:08.143Z,3.70
2018-06-28T22:41:52.107Z,5.00
2018-06-28T22:44:41.117Z,3.53
2018-06-28T22:47:32.811Z,3.03
2018-06-28T22:50:18.177Z,3.50
2018-06-28T22:53:13.981Z,3.30
2018-06-28T22:56:02.399Z,3.37
2018-06-28T22:58:54.169Z,3.27
2018-06-28T23:01:34.128Z,3.80
2018-06-28T23:04:10.796Z,5.07
2018-06-28T23:06:55.685Z,4.10
2018-06-28T23:09:44.220Z,3.57
2018-06-28T23:12:30.660Z,3.63
2018-06-28T23:15:18.226Z,3.37
2018-06-28T23:18:07.650Z,4.60
2018-06-28T23:20:56.145Z,3.40
2018-06-28T23:23:47.396Z,4.27
2018-06-28T23:26:32.398Z,3.00
2018-06-28T23:29:17.231Z,3.60
2018-06-28T23:32:11.065Z,5.10
2018-06-28T23:37:44.850Z,3.13
2018-06-28T23:40:33.878Z,3.47
2018-06-28T23:43:16.256Z,6.37
2018-06-28T23:46:08.056Z,3.83
2018-06-28T23:49:01.407Z,3.23
2018-06-28T23:51:48.090Z,3.50
2018-06-28T23:54:37.728Z,4.37
2018-06-28T23:57:24.943Z,4.43
